createdAt,value
2022-08-07T00:01:43.766Z,93.78
2022-08-07T00:04:11.435Z,94.31
2022-08-07T00:06:51.731Z,94.08
2022-08-07T00:09:22.850Z,94.49
2022-08-07T00:11:58.897Z,94.88
2022-08-07T00:14:31.788Z,94.84
2022-08-07T00:17:06.789Z,94.64
2022-08-07T00:20:00.902Z,94.70
2022-08-07T00:22:14.400Z,95.18
2022-08-07T00:24:48.624Z,95.31
2022-08-07T00:27:22.610Z,95.60
2022-08-07T00:29:54.855Z,95.83
2022-08-07T00:32:28.252Z,95.68
2022-08-07T00:35:01.230Z,95.73
2022-08-07T00:37:47.607Z,95.80
2022-08-07T00:40:11.733Z,96.32
2022-08-07T00:42:46.872Z,96.58
2022-08-07T00:45:22.014Z,96.86
2022-08-07T00:48:10.072Z,96.82
2022-08-07T00:50:51.383Z,96.83
2022-08-07T00:53:04.731Z,96.86
2022-08-07T00:56:02.683Z,97.06
2022-08-07T00:58:15.121Z,97.07
2022-08-07T01:00:53.601Z,97.58
2022-08-07T01:03:54.873Z,97.71
2022-08-07T01:05:56.985Z,97.72
2022-08-07T01:08:29.368Z,97.78
2022-08-07T01:12:04.821Z,97.55
2022-08-07T01:13:37.949Z,97.15
2022-08-07T01:16:12.175Z,96.79
2022-08-07T01:18:47.329Z,96.33
2022-08-07T01:21:26.032Z,97.17
2022-08-07T01:24:02.282Z,97.37
2022-08-07T01:26:35.747Z,97.02
2022-08-07T01:29:10.183Z,97.40
2022-08-07T01:31:48.244Z,97.66
2022-08-07T01:34:19.554Z,97.77
2022-08-07T01:36:57.722Z,97.62
2022-08-07T01:39:40.360Z,97.36
2022-08-07T01:42:37.994Z,97.15
2022-08-07T01:44:44.578Z,97.47
2022-08-07T01:48:19.337Z,97.79
2022-08-07T01:49:54.664Z,98.39
2022-08-07T01:52:29.046Z,98.48
2022-08-07T01:55:01.989Z,98.46
2022-08-07T01:58:01.358Z,98.68
2022-08-07T02:00:15.680Z,98.71
2022-08-07T02:03:19.381Z,99.12
2022-08-07T02:05:59.441Z,99.53
2022-08-07T02:08:25.645Z,99.59
2022-08-07T02:10:59.794Z,99.70
2022-08-07T02:13:57.894Z,99.83
2022-08-07T02:16:09.060Z,100.00
2022-08-07T02:18:47.273Z,100.00
2022-08-07T02:21:19.053Z,100.00
2022-08-07T02:23:51.774Z,100.00
2022-08-07T02:26:34.431Z,100.00
2022-08-07T02:29:00.083Z,100.00
2022-08-07T02:31:32.918Z,100.00
2022-08-07T02:34:11.636Z,100.00
2022-08-07T02:36:43.449Z,100.00
2022-08-07T02:39:43.890Z,100.00
2022-08-07T02:41:55.146Z,100.00
2022-08-07T02:44:34.671Z,100.00
2022-08-07T02:47:03.717Z,100.00
2022-08-07T02:49:56.315Z,100.00
2022-08-07T02:52:13.010Z,100.00
2022-08-07T02:54:46.802Z,100.00
2022-08-07T02:57:28.631Z,100.00
2022-08-07T03:00:01.262Z,100.00
2022-08-07T03:02:36.215Z,100.00
2022-08-07T03:05:12.770Z,100.00
2022-08-07T03:08:07.166Z,100.00
2022-08-07T03:10:23.734Z,100.00
2022-08-07T03:12:57.048Z,100.00
2022-08-07T03:15:55.626Z,100.00
2022-08-07T03:18:06.803Z,100.00
2022-08-07T03:20:40.585Z,100.00
2022-08-07T03:23:18.921Z,100.00
2022-08-07T03:25:58.187Z,100.00
2022-08-07T03:28:38.344Z,100.00
2022-08-07T03:30:59.874Z,100.00
2022-08-07T03:33:40.154Z,99.97
2022-08-07T03:36:09.711Z,99.84
2022-08-07T03:38:43.782Z,99.75
2022-08-07T03:41:17.646Z,99.34
2022-08-07T03:43:57.205Z,98.92
2022-08-07T03:46:25.533Z,98.92
2022-08-07T03:49:02.963Z,98.56
2022-08-07T03:51:47.629Z,98.03
2022-08-07T03:54:36.485Z,97.48
2022-08-07T03:57:03.589Z,97.06
2022-08-07T03:59:21.016Z,96.53
2022-08-07T04:01:55.623Z,95.17
2022-08-07T04:04:29.329Z,95.17
2022-08-07T04:07:16.599Z,93.99
2022-08-07T04:09:45.307Z,93.08
2022-08-07T04:12:28.906Z,92.42
2022-08-07T04:15:02.521Z,91.91
2022-08-07T04:18:31.043Z,91.44
2022-08-07T04:20:13.600Z,90.91
2022-08-07T04:22:53.482Z,90.44
2022-08-07T04:25:22.419Z,89.59
2022-08-07T04:28:00.322Z,89.09
2022-08-07T04:30:43.691Z,88.53
2022-08-07T04:33:09.740Z,88.32
2022-08-07T04:35:50.127Z,88.56
2022-08-07T04:38:26.683Z,88.61
2022-08-07T04:40:59.495Z,88.17
2022-08-07T04:44:12.607Z,87.98
2022-08-07T04:46:34.852Z,87.24
2022-08-07T04:49:38.446Z,86.68
2022-08-07T04:52:18.268Z,86.17
2022-08-07T04:55:02.616Z,86.25
2022-08-07T04:58:12.866Z,86.70
2022-08-07T05:00:42.314Z,86.66
2022-08-07T05:03:59.799Z,87.08
2022-08-07T05:06:19.520Z,86.88
2022-08-07T05:09:45.859Z,86.90
2022-08-07T05:12:04.755Z,87.43
2022-08-07T05:14:54.898Z,88.09
2022-08-07T05:17:52.455Z,88.79
2022-08-07T05:19:55.457Z,89.15
2022-08-07T05:22:28.345Z,89.16
2022-08-07T05:25:02.340Z,88.40
2022-08-07T05:28:15.939Z,87.37
2022-08-07T05:30:12.491Z,86.77
2022-08-07T05:32:47.794Z,86.81
2022-08-07T05:35:33.149Z,86.67
2022-08-07T05:38:08.599Z,86.39
2022-08-07T05:40:31.624Z,85.83
2022-08-07T05:43:06.682Z,84.90
2022-08-07T05:45:47.482Z,83.94
2022-08-07T05:48:17.683Z,83.39
2022-08-07T05:50:52.064Z,83.23
2022-08-07T05:54:13.457Z,82.58
2022-08-07T05:56:03.018Z,82.08
2022-08-07T05:58:36.813Z,81.50
2022-08-07T06:01:10.796Z,80.21
2022-08-07T06:03:56.868Z,78.28
2022-08-07T06:06:24.564Z,76.92
2022-08-07T06:08:59.942Z,76.56
2022-08-07T06:11:54.634Z,76.40
2022-08-07T06:14:30.272Z,77.19
2022-08-07T06:17:07.067Z,77.12
2022-08-07T06:19:47.904Z,74.47
2022-08-07T06:22:23.272Z,72.45
2022-08-07T06:24:58.349Z,72.21
2022-08-07T06:27:43.946Z,72.02
2022-08-07T06:30:02.682Z,71.29
2022-08-07T06:32:35.364Z,69.67
2022-08-07T06:35:19.831Z,68.43
2022-08-07T06:37:55.253Z,68.20
2022-08-07T06:40:34.394Z,67.59
2022-08-07T06:43:04.983Z,65.91
2022-08-07T06:45:47.173Z,65.11
2022-08-07T06:48:25.041Z,63.91
2022-08-07T06:50:56.047Z,64.03
2022-08-07T06:55:27.736Z,62.88
2022-08-07T06:56:03.483Z,62.12
2022-08-07T06:58:40.288Z,62.36
2022-08-07T07:01:17.663Z,61.79
2022-08-07T07:04:07.028Z,60.97
2022-08-07T07:06:34.712Z,59.38
2022-08-07T07:09:30.889Z,59.13
2022-08-07T07:12:33.395Z,58.30
2022-08-07T07:15:24.104Z,57.92
2022-08-07T07:18:09.114Z,57.84
2022-08-07T07:20:50.457Z,58.37
2022-08-07T07:24:08.641Z,56.63
2022-08-07T07:26:34.613Z,56.18
2022-08-07T07:29:38.896Z,55.44
2022-08-07T07:31:39.764Z,54.75
2022-08-07T07:34:07.838Z,54.13
2022-08-07T07:36:41.605Z,53.04
2022-08-07T07:39:15.800Z,52.56
2022-08-07T07:42:13.710Z,52.32
2022-08-07T07:44:26.859Z,51.51
2022-08-07T07:47:14.053Z,50.87
2022-08-07T07:50:33.579Z,50.48
2022-08-07T07:52:09.133Z,48.66
2022-08-07T07:54:50.445Z,49.41
2022-08-07T07:57:21.577Z,49.31
2022-08-07T07:59:55.835Z,48.58
2022-08-07T08:02:34.231Z,47.47
2022-08-07T08:05:14.202Z,47.05
2022-08-07T08:07:59.552Z,47.22
2022-08-07T08:10:38.279Z,46.43
2022-08-07T08:12:58.989Z,44.99
2022-08-07T08:15:26.181Z,44.83
2022-08-07T08:17:59.086Z,44.85
2022-08-07T08:20:34.733Z,43.68
2022-08-07T08:23:28.174Z,44.49
2022-08-07T08:26:20.660Z,43.47
2022-08-07T08:28:56.142Z,43.09
2022-08-07T08:32:04.850Z,42.84
2022-08-07T08:34:08.341Z,42.52
2022-08-07T08:36:41.905Z,42.80
2022-08-07T08:39:17.726Z,41.98
2022-08-07T08:42:20.557Z,41.26
2022-08-07T08:45:16.213Z,41.64
2022-08-07T08:48:32.357Z,41.32
2022-08-07T08:51:49.566Z,41.15
2022-08-07T08:54:37.121Z,41.16
2022-08-07T08:57:14.369Z,41.29
2022-08-07T08:59:57.203Z,41.06
2022-08-07T09:02:52.348Z,41.05
2022-08-07T09:05:59.502Z,41.09
2022-08-07T09:09:03.159Z,41.13
2022-08-07T09:12:19.871Z,41.34
2022-08-07T09:14:58.869Z,41.13
2022-08-07T09:18:15.815Z,40.93
2022-08-07T09:22:09.948Z,41.47
2022-08-07T09:24:58.869Z,41.46
2022-08-07T09:27:54.621Z,39.44
2022-08-07T09:30:10.584Z,40.48
2022-08-07T09:33:41.300Z,40.31
2022-08-07T09:36:09.667Z,40.61
2022-08-07T09:39:53.707Z,39.30
2022-08-07T09:42:23.193Z,40.34
2022-08-07T09:47:49.622Z,39.19
2022-08-07T09:48:01.824Z,39.99
2022-08-07T09:50:39.858Z,40.26
2022-08-07T09:53:13.702Z,40.17
2022-08-07T09:56:37.593Z,40.82
2022-08-07T10:00:00.645Z,40.79
2022-08-07T10:03:08.150Z,41.96
2022-08-07T10:06:36.216Z,43.52
2022-08-07T10:09:59.146Z,44.10
2022-08-07T10:12:53.885Z,45.03
2022-08-07T10:15:46.086Z,45.68
2022-08-07T10:19:03.727Z,46.75
2022-08-07T10:22:24.876Z,46.95
2022-08-07T10:25:06.966Z,47.35
2022-08-07T10:27:56.106Z,47.99
2022-08-07T10:30:45.739Z,47.84
2022-08-07T10:34:05.784Z,47.86
2022-08-07T10:36:51.159Z,47.69
2022-08-07T10:40:03.441Z,48.25
2022-08-07T10:42:49.977Z,49.37
2022-08-07T10:45:45.138Z,49.47
2022-08-07T10:48:48.439Z,49.80
2022-08-07T10:52:01.815Z,50.06
2022-08-07T10:54:26.338Z,51.13
2022-08-07T10:57:34.810Z,51.01
2022-08-07T11:00:39.226Z,51.20
2022-08-07T11:03:18.289Z,52.02
2022-08-07T11:06:21.897Z,51.21
2022-08-07T11:09:11.258Z,50.93
2022-08-07T11:12:10.783Z,51.77
2022-08-07T11:15:02.103Z,52.29
2022-08-07T11:17:49.541Z,51.24
2022-08-07T11:20:27.812Z,50.92
2022-08-07T11:23:20.563Z,51.39
2022-08-07T11:26:20.832Z,51.17
2022-08-07T11:29:41.948Z,51.27
2022-08-07T11:32:01.608Z,52.72
2022-08-07T11:35:00.646Z,53.25
2022-08-07T11:38:17.517Z,53.19
2022-08-07T11:40:59.598Z,53.38
2022-08-07T11:44:11.036Z,53.56
2022-08-07T11:46:51.068Z,54.93
2022-08-07T11:50:25.488Z,56.74
2022-08-07T11:52:29.338Z,58.18
2022-08-07T11:56:13.969Z,59.59
2022-08-07T11:58:49.711Z,61.57
2022-08-07T12:02:05.025Z,63.45
2022-08-07T12:04:58.626Z,65.63
2022-08-07T12:07:42.188Z,67.69
2022-08-07T12:10:34.074Z,71.04
2022-08-07T12:13:35.589Z,73.34
2022-08-07T12:16:06.779Z,74.80
2022-08-07T12:18:58.250Z,76.04
2022-08-07T12:22:39.233Z,77.70
2022-08-07T12:26:02.893Z,79.65
2022-08-07T12:28:08.624Z,80.68
2022-08-07T12:30:36.921Z,82.37
2022-08-07T12:33:28.041Z,83.29
2022-08-07T12:35:58.026Z,84.86
2022-08-07T12:38:42.991Z,86.77
2022-08-07T12:41:05.553Z,88.47
2022-08-07T12:44:04.085Z,89.08
2022-08-07T12:46:38.853Z,89.51
2022-08-07T12:50:02.580Z,89.94
2022-08-07T12:52:53.085Z,90.68
2022-08-07T12:55:41.320Z,90.62
2022-08-07T12:58:17.041Z,91.83
2022-08-07T13:01:03.480Z,91.94
2022-08-07T13:04:09.799Z,91.94
2022-08-07T13:07:07.934Z,92.41
2022-08-07T13:10:37.797Z,93.32
2022-08-07T13:13:46.914Z,94.13
2022-08-07T13:16:51.191Z,94.90
2022-08-07T13:19:51.438Z,94.83
2022-08-07T13:22:56.142Z,94.88
2022-08-07T13:26:00.851Z,95.01
2022-08-07T13:28:39.071Z,94.87
2022-08-07T13:31:24.382Z,95.44
2022-08-07T13:34:34.325Z,95.44
2022-08-07T13:37:10.535Z,96.01
2022-08-07T13:43:15.085Z,96.38
2022-08-07T13:46:10.765Z,96.55
2022-08-07T13:48:34.149Z,96.98
2022-08-07T13:51:01.957Z,96.98
2022-08-07T13:54:01.835Z,96.96
2022-08-07T13:56:19.438Z,97.11
2022-08-07T13:59:05.622Z,97.04
2022-08-07T14:01:51.628Z,96.18
2022-08-07T14:04:24.620Z,95.89
2022-08-07T14:06:58.723Z,96.84
2022-08-07T14:10:12.593Z,96.76
2022-08-07T14:12:31.079Z,97.88
2022-08-07T14:15:10.522Z,97.90
2022-08-07T14:18:27.061Z,96.89
2022-08-07T14:20:40.570Z,96.82
2022-08-07T14:23:59.483Z,98.06
2022-08-07T14:26:09.644Z,99.51
2022-08-07T14:28:58.947Z,100.00
2022-08-07T14:31:20.500Z,100.00
2022-08-07T14:33:55.337Z,100.00
2022-08-07T14:36:31.499Z,96.95
2022-08-07T14:39:06.535Z,96.37
2022-08-07T14:42:18.582Z,95.49
2022-08-07T14:44:15.905Z,95.59
2022-08-07T14:46:51.579Z,95.72
2022-08-07T14:49:57.739Z,95.48
2022-08-07T14:52:10.521Z,95.06
2022-08-07T14:54:43.379Z,95.23
2022-08-07T14:57:19.684Z,94.19
2022-08-07T15:00:04.396Z,94.72
2022-08-07T15:05:20.482Z,95.30
2022-08-07T15:13:06.233Z,94.09
2022-08-07T15:15:41.442Z,93.99
2022-08-07T15:18:34.114Z,94.25
2022-08-07T15:25:04.048Z,94.17
2022-08-07T15:26:21.117Z,94.17
2022-08-07T15:28:55.474Z,93.81
2022-08-07T15:32:01.779Z,93.78
2022-08-07T15:34:02.149Z,93.49
2022-08-07T15:37:03.061Z,93.69
2022-08-07T15:39:12.672Z,93.29
2022-08-07T15:42:44.206Z,93.94
2022-08-07T15:44:52.156Z,95.07
2022-08-07T15:50:05.739Z,94.05
2022-08-07T15:52:36.755Z,94.02
2022-08-07T15:55:12.525Z,93.11
2022-08-07T15:57:49.574Z,93.11
2022-08-07T16:00:33.678Z,92.49
2022-08-07T16:03:00.003Z,92.66
2022-08-07T16:05:33.441Z,93.26
2022-08-07T16:08:32.107Z,93.63
2022-08-07T16:10:50.940Z,93.84
2022-08-07T16:13:59.077Z,93.85
2022-08-07T16:16:47.557Z,94.90
2022-08-07T16:19:42.860Z,95.18
2022-08-07T16:22:36.414Z,95.42
2022-08-07T16:25:52.612Z,95.85
2022-08-07T16:30:09.135Z,95.66
2022-08-07T16:31:52.039Z,95.71
2022-08-07T16:34:37.207Z,95.80
2022-08-07T16:38:03.654Z,96.59
2022-08-07T16:40:31.935Z,96.15
2022-08-07T16:44:04.232Z,95.51
2022-08-07T16:47:07.821Z,95.91
2022-08-07T16:50:20.147Z,95.28
2022-08-07T16:52:51.328Z,95.98
2022-08-07T16:55:08.460Z,96.23
2022-08-07T16:58:01.558Z,96.68
2022-08-07T17:00:29.436Z,96.83
2022-08-07T17:03:06.090Z,97.21
2022-08-07T17:06:28.471Z,97.51
2022-08-07T17:09:09.914Z,97.90
2022-08-07T17:12:03.879Z,98.05
2022-08-07T17:14:28.052Z,98.61
2022-08-07T17:17:03.501Z,98.63
2022-08-07T17:20:14.398Z,99.66
2022-08-07T17:23:08.841Z,99.81
2022-08-07T17:25:53.983Z,99.42
2022-08-07T17:28:40.235Z,99.62
2022-08-07T17:31:19.323Z,99.92
2022-08-07T17:34:35.027Z,99.74
2022-08-07T17:37:14.401Z,99.93
2022-08-07T17:40:10.735Z,99.99
2022-08-07T17:43:15.036Z,100.00
2022-08-07T17:45:44.107Z,100.00
2022-08-07T17:52:00.472Z,99.69
2022-08-07T17:57:58.232Z,99.90
2022-08-07T18:00:32.989Z,100.00
2022-08-07T18:03:27.394Z,100.00
2022-08-07T18:06:16.633Z,100.00
2022-08-07T18:09:05.905Z,99.96
2022-08-07T18:12:16.091Z,99.39
2022-08-07T18:14:57.864Z,98.82
2022-08-07T18:18:46.770Z,98.17
2022-08-07T18:21:09.922Z,99.19
2022-08-07T18:23:42.215Z,98.76
2022-08-07T18:26:05.721Z,97.56
2022-08-07T18:30:05.654Z,97.65
2022-08-07T18:32:16.768Z,97.55
2022-08-07T18:35:16.762Z,97.29
2022-08-07T18:38:58.250Z,96.63
2022-08-07T18:41:46.005Z,96.32
2022-08-07T18:45:44.243Z,96.91
2022-08-07T18:48:01.306Z,97.26
2022-08-07T18:51:00.302Z,96.95
2022-08-07T18:53:55.907Z,96.62
2022-08-07T18:57:29.456Z,96.42
2022-08-07T19:00:33.104Z,97.14
2022-08-07T19:03:35.549Z,97.79
2022-08-07T19:06:05.032Z,98.42
2022-08-07T19:09:09.253Z,98.86
2022-08-07T19:12:03.906Z,99.20
2022-08-07T19:14:38.581Z,99.93
2022-08-07T19:18:03.982Z,99.76
2022-08-07T19:22:50.441Z,99.86
2022-08-07T19:26:24.351Z,100.00
2022-08-07T19:28:57.108Z,100.00
2022-08-07T19:31:03.256Z,100.00
2022-08-07T19:33:15.297Z,100.00
2022-08-07T19:35:49.435Z,100.00
2022-08-07T19:38:21.899Z,100.00
2022-08-07T19:41:00.524Z,100.00
2022-08-07T19:43:45.129Z,100.00
2022-08-07T19:46:10.680Z,100.00
2022-08-07T19:48:54.063Z,100.00
2022-08-07T19:51:50.969Z,100.00
2022-08-07T19:54:31.043Z,100.00
2022-08-07T19:57:51.231Z,100.00
2022-08-07T19:59:41.406Z,100.00
2022-08-07T20:02:03.665Z,100.00
2022-08-07T20:04:41.671Z,100.00
2022-08-07T20:07:23.880Z,100.00
2022-08-07T20:10:38.024Z,100.00
2022-08-07T20:12:34.454Z,100.00
2022-08-07T20:15:03.722Z,100.00
2022-08-07T20:17:38.521Z,100.00
2022-08-07T20:20:13.561Z,100.00
2022-08-07T20:22:47.109Z,100.00
2022-08-07T20:25:22.365Z,100.00
2022-08-07T20:27:58.690Z,100.00
2022-08-07T20:30:37.158Z,100.00
2022-08-07T20:33:36.407Z,100.00
2022-08-07T20:35:51.923Z,100.00
2022-08-07T20:38:24.403Z,100.00
2022-08-07T20:41:01.697Z,100.00
2022-08-07T20:43:36.193Z,100.00
2022-08-07T20:46:27.399Z,100.00
2022-08-07T20:49:54.599Z,100.00
2022-08-07T20:51:20.035Z,100.00
2022-08-07T20:54:04.482Z,100.00
2022-08-07T20:56:32.286Z,100.00
2022-08-07T21:00:04.242Z,100.00
2022-08-07T21:01:45.618Z,100.00
2022-08-07T21:04:22.779Z,100.00
2022-08-07T21:06:58.218Z,100.00
2022-08-07T21:09:52.699Z,100.00
2022-08-07T21:12:15.187Z,100.00
2022-08-07T21:14:48.428Z,100.00
2022-08-07T21:18:17.525Z,100.00
2022-08-07T21:20:04.424Z,100.00
2022-08-07T21:22:28.953Z,99.89
2022-08-07T21:25:42.587Z,100.00
2022-08-07T21:28:48.705Z,100.00
2022-08-07T21:31:16.031Z,100.00
2022-08-07T21:34:18.175Z,100.00
2022-08-07T21:36:59.388Z,100.00
2022-08-07T21:39:54.990Z,100.00
2022-08-07T21:43:06.515Z,100.00
2022-08-07T21:46:10.079Z,100.00
2022-08-07T21:48:34.575Z,100.00
2022-08-07T21:51:54.568Z,100.00
2022-08-07T21:54:46.237Z,100.00
2022-08-07T21:58:03.358Z,100.00
2022-08-07T22:00:36.163Z,100.00
2022-08-07T22:03:40.630Z,100.00
2022-08-07T22:06:30.796Z,100.00
2022-08-07T22:09:07.098Z,100.00
2022-08-07T22:12:04.801Z,100.00
2022-08-07T22:14:23.768Z,100.00
2022-08-07T22:17:02.511Z,100.00
2022-08-07T22:19:41.621Z,100.00
2022-08-07T22:22:29.042Z,100.00
2022-08-07T22:25:13.247Z,100.00
2022-08-07T22:28:26.832Z,100.00
2022-08-07T22:31:00.810Z,100.00
2022-08-07T22:33:53.638Z,100.00
2022-08-07T22:36:58.530Z,100.00
2022-08-07T22:39:55.377Z,100.00
2022-08-07T22:42:30.922Z,100.00
2022-08-07T22:46:04.115Z,100.00
2022-08-07T22:48:54.647Z,100.00
2022-08-07T22:51:23.378Z,100.00
2022-08-07T22:54:19.675Z,100.00
2022-08-07T22:57:07.811Z,100.00
2022-08-07T23:00:09.079Z,100.00
2022-08-07T23:03:09.282Z,100.00
2022-08-07T23:06:07.536Z,100.00
2022-08-07T23:08:31.545Z,100.00
2022-08-07T23:11:17.668Z,100.00
2022-08-07T23:14:34.184Z,100.00
2022-08-07T23:17:54.797Z,100.00
2022-08-07T23:21:16.169Z,100.00
2022-08-07T23:24:05.358Z,100.00
2022-08-07T23:27:16.211Z,100.00
2022-08-07T23:30:37.642Z,100.00
2022-08-07T23:34:35.023Z,100.00
2022-08-07T23:36:02.986Z,100.00
2022-08-07T23:39:08.545Z,100.00
2022-08-07T23:42:05.107Z,100.00
2022-08-07T23:44:52.606Z,100.00
2022-08-07T23:48:07.732Z,100.00
2022-08-07T23:50:55.808Z,100.00
2022-08-07T23:54:19.683Z,100.00
2022-08-07T23:57:12.163Z,100.00
